sensor_id;sensor_type;location;lat;lon;timestamp;pressure;altitude;pressure_sealevel;temperature;humidity
13367;BME280;6752;52.612;13.630;2023-02-02T00:00:23;100041.22;;;4.46;100.00
13367;BME280;6752;52.612;13.630;2023-02-02T00:05:26;100041.59;;;4.50;100.00
13367;BME280;6752;52.612;13.630;2023-02-02T00:10:28;100042.00;;;4.50;100.00
13367;BME280;6752;52.612;13.630;2023-02-02T00:15:30;100020.37;;;4.64;100.00
13367;BME280;6752;52.612;13.630;2023-02-02T00:20:33;100017.68;;;4.64;100.00
13367;BME280;6752;52.612;13.630;2023-02-02T00:25:38;100019.97;;;4.64;100.00
13367;BME280;6752;52.612;13.630;2023-02-02T00:30:40;100007.53;;;4.70;100.00
13367;BME280;6752;52.612;13.630;2023-02-02T00:35:42;100008.15;;;4.68;100.00
13367;BME280;6752;52.612;13.630;2023-02-02T00:40:45;100002.61;;;4.76;100.00
13367;BME280;6752;52.612;13.630;2023-02-02T00:45:47;100011.68;;;4.69;100.00
13367;BME280;6752;52.612;13.630;2023-02-02T00:50:50;99995.38;;;4.66;100.00
13367;BME280;6752;52.612;13.630;2023-02-02T00:55:52;100002.00;;;4.64;100.00
13367;BME280;6752;52.612;13.630;2023-02-02T01:01:01;99996.50;;;4.65;100.00
13367;BME280;6752;52.612;13.630;2023-02-02T01:06:04;100006.27;;;4.66;100.00
13367;BME280;6752;52.612;13.630;2023-02-02T01:11:06;100003.32;;;4.57;100.00
13367;BME280;6752;52.612;13.630;2023-02-02T01:16:08;99991.69;;;4.57;100.00
13367;BME280;6752;52.612;13.630;2023-02-02T01:21:11;99998.12;;;4.56;100.00
13367;BME280;6752;52.612;13.630;2023-02-02T01:26:13;100008.94;;;4.59;100.00
13367;BME280;6752;52.612;13.630;2023-02-02T01:31:17;100004.35;;;4.56;100.00
13367;BME280;6752;52.612;13.630;2023-02-02T01:36:19;100006.53;;;4.56;100.00
13367;BME280;6752;52.612;13.630;2023-02-02T01:41:22;100013.70;;;4.57;100.00
13367;BME280;6752;52.612;13.630;2023-02-02T01:46:35;100023.48;;;4.61;100.00
13367;BME280;6752;52.612;13.630;2023-02-02T01:51:48;100023.28;;;4.63;100.00
13367;BME280;6752;52.612;13.630;2023-02-02T01:56:57;100033.87;;;4.64;100.00
13367;BME280;6752;52.612;13.630;2023-02-02T02:01:51;100041.63;;;4.57;100.00
13367;BME280;6752;52.612;13.630;2023-02-02T02:06:57;100041.52;;;4.57;100.00
13367;BME280;6752;52.612;13.630;2023-02-02T02:11:59;100046.37;;;4.51;100.00
13367;BME280;6752;52.612;13.630;2023-02-02T02:17:20;100042.34;;;4.55;100.00
13367;BME280;6752;52.612;13.630;2023-02-02T02:22:19;100065.50;;;4.56;100.00
13367;BME280;6752;52.612;13.630;2023-02-02T02:33:02;100082.33;;;4.58;100.00
13367;BME280;6752;52.612;13.630;2023-02-02T02:43:31;100093.86;;;4.60;100.00
13367;BME280;6752;52.612;13.630;2023-02-02T02:48:32;100105.51;;;4.63;100.00
13367;BME280;6752;52.612;13.630;2023-02-02T02:53:34;100113.27;;;4.59;100.00
13367;BME280;6752;52.612;13.630;2023-02-02T02:58:51;100119.25;;;4.55;100.00
13367;BME280;6752;52.612;13.630;2023-02-02T03:04:05;100126.86;;;4.58;100.00
13367;BME280;6752;52.612;13.630;2023-02-02T03:09:06;100145.93;;;4.54;100.00
13367;BME280;6752;52.612;13.630;2023-02-02T03:14:07;100149.89;;;4.47;100.00
13367;BME280;6752;52.612;13.630;2023-02-02T03:19:10;100151.19;;;4.40;100.00
13367;BME280;6752;52.612;13.630;2023-02-02T03:24:12;100170.11;;;4.44;100.00
13367;BME280;6752;52.612;13.630;2023-02-02T03:29:15;100174.81;;;4.35;100.00
13367;BME280;6752;52.612;13.630;2023-02-02T03:34:17;100200.25;;;4.26;100.00
13367;BME280;6752;52.612;13.630;2023-02-02T03:39:19;100185.55;;;4.28;100.00
13367;BME280;6752;52.612;13.630;2023-02-02T03:44:22;100210.47;;;4.30;100.00
13367;BME280;6752;52.612;13.630;2023-02-02T03:49:24;100219.22;;;4.54;100.00
13367;BME280;6752;52.612;13.630;2023-02-02T03:54:26;100230.43;;;4.54;100.00
13367;BME280;6752;52.612;13.630;2023-02-02T03:59:28;100231.74;;;4.61;100.00
13367;BME280;6752;52.612;13.630;2023-02-02T04:04:31;100240.50;;;4.67;100.00
13367;BME280;6752;52.612;13.630;2023-02-02T04:09:33;100244.95;;;4.64;100.00
13367;BME280;6752;52.612;13.630;2023-02-02T04:14:35;100246.12;;;4.69;100.00
13367;BME280;6752;52.612;13.630;2023-02-02T04:19:38;100254.51;;;4.74;100.00
13367;BME280;6752;52.612;13.630;2023-02-02T04:24:40;100267.72;;;4.76;100.00
13367;BME280;6752;52.612;13.630;2023-02-02T04:29:43;100283.38;;;4.73;100.00
13367;BME280;6752;52.612;13.630;2023-02-02T04:34:45;100285.48;;;4.78;100.00
13367;BME280;6752;52.612;13.630;2023-02-02T04:39:47;100288.51;;;4.79;100.00
13367;BME280;6752;52.612;13.630;2023-02-02T04:44:50;100302.53;;;4.71;100.00
13367;BME280;6752;52.612;13.630;2023-02-02T04:49:52;100314.33;;;4.74;100.00
13367;BME280;6752;52.612;13.630;2023-02-02T04:54:55;100323.36;;;4.74;100.00
13367;BME280;6752;52.612;13.630;2023-02-02T04:59:57;100352.48;;;4.78;100.00
13367;BME280;6752;52.612;13.630;2023-02-02T05:04:59;100349.78;;;4.78;100.00
13367;BME280;6752;52.612;13.630;2023-02-02T05:10:06;100367.84;;;4.78;100.00
13367;BME280;6752;52.612;13.630;2023-02-02T05:15:04;100372.28;;;4.85;100.00
13367;BME280;6752;52.612;13.630;2023-02-02T05:20:06;100389.54;;;4.77;100.00
13367;BME280;6752;52.612;13.630;2023-02-02T05:25:09;100387.13;;;4.75;100.00
13367;BME280;6752;52.612;13.630;2023-02-02T05:30:12;100395.41;;;4.66;100.00
13367;BME280;6752;52.612;13.630;2023-02-02T05:35:14;100395.55;;;4.68;100.00
13367;BME280;6752;52.612;13.630;2023-02-02T05:40:16;100409.01;;;4.65;100.00
13367;BME280;6752;52.612;13.630;2023-02-02T05:45:18;100424.14;;;4.63;100.00
13367;BME280;6752;52.612;13.630;2023-02-02T05:50:22;100435.39;;;4.66;100.00
13367;BME280;6752;52.612;13.630;2023-02-02T05:55:24;100451.37;;;4.65;100.00
13367;BME280;6752;52.612;13.630;2023-02-02T06:00:26;100452.81;;;4.64;100.00
13367;BME280;6752;52.612;13.630;2023-02-02T06:05:29;100470.66;;;4.54;100.00
13367;BME280;6752;52.612;13.630;2023-02-02T06:10:31;100479.27;;;4.54;100.00
13367;BME280;6752;52.612;13.630;2023-02-02T06:15:34;100494.73;;;4.48;100.00
13367;BME280;6752;52.612;13.630;2023-02-02T06:20:36;100498.78;;;4.48;100.00
13367;BME280;6752;52.612;13.630;2023-02-02T06:25:38;100510.41;;;4.49;100.00
13367;BME280;6752;52.612;13.630;2023-02-02T06:30:41;100511.02;;;4.47;100.00
13367;BME280;6752;52.612;13.630;2023-02-02T06:35:43;100517.43;;;4.51;100.00
13367;BME280;6752;52.612;13.630;2023-02-02T06:40:46;100517.15;;;4.53;100.00
13367;BME280;6752;52.612;13.630;2023-02-02T06:45:48;100526.77;;;4.59;100.00
13367;BME280;6752;52.612;13.630;2023-02-02T06:50:50;100535.16;;;4.56;100.00
13367;BME280;6752;52.612;13.630;2023-02-02T06:55:56;100547.39;;;4.56;100.00
13367;BME280;6752;52.612;13.630;2023-02-02T07:01:04;100553.40;;;4.54;100.00
13367;BME280;6752;52.612;13.630;2023-02-02T07:06:17;100565.03;;;4.62;100.00
13367;BME280;6752;52.612;13.630;2023-02-02T07:11:15;100583.05;;;4.58;100.00
13367;BME280;6752;52.612;13.630;2023-02-02T07:16:17;100595.56;;;4.63;100.00
13367;BME280;6752;52.612;13.630;2023-02-02T07:21:24;100594.31;;;4.69;100.00
13367;BME280;6752;52.612;13.630;2023-02-02T07:26:21;100611.20;;;4.67;100.00
13367;BME280;6752;52.612;13.630;2023-02-02T07:31:24;100619.08;;;4.66;100.00
13367;BME280;6752;52.612;13.630;2023-02-02T07:36:26;100618.89;;;4.67;100.00
13367;BME280;6752;52.612;13.630;2023-02-02T07:41:28;100639.23;;;4.66;100.00
13367;BME280;6752;52.612;13.630;2023-02-02T07:46:31;100635.23;;;4.70;100.00
13367;BME280;6752;52.612;13.630;2023-02-02T07:51:33;100645.19;;;4.69;100.00
13367;BME280;6752;52.612;13.630;2023-02-02T07:56:36;100649.55;;;4.74;100.00
13367;BME280;6752;52.612;13.630;2023-02-02T08:01:38;100652.72;;;4.78;100.00
13367;BME280;6752;52.612;13.630;2023-02-02T08:06:40;100661.05;;;4.80;100.00
13367;BME280;6752;52.612;13.630;2023-02-02T08:11:42;100670.37;;;4.77;100.00
13367;BME280;6752;52.612;13.630;2023-02-02T08:16:45;100683.91;;;4.80;100.00
13367;BME280;6752;52.612;13.630;2023-02-02T08:21:50;100691.28;;;4.86;100.00
13367;BME280;6752;52.612;13.630;2023-02-02T08:26:56;100695.27;;;5.09;100.00
13367;BME280;6752;52.612;13.630;2023-02-02T08:31:55;100706.89;;;5.29;100.00
13367;BME280;6752;52.612;13.630;2023-02-02T08:36:57;100707.29;;;5.14;100.00
13367;BME280;6752;52.612;13.630;2023-02-02T08:41:59;100722.75;;;5.20;100.00
13367;BME280;6752;52.612;13.630;2023-02-02T08:47:02;100731.33;;;5.09;100.00
13367;BME280;6752;52.612;13.630;2023-02-02T08:52:04;100744.75;;;5.10;100.00
13367;BME280;6752;52.612;13.630;2023-02-02T08:57:06;100738.83;;;4.91;100.00
13367;BME280;6752;52.612;13.630;2023-02-02T09:02:12;100743.48;;;4.90;100.00
13367;BME280;6752;52.612;13.630;2023-02-02T09:07:17;100749.95;;;4.85;100.00
13367;BME280;6752;52.612;13.630;2023-02-02T09:12:19;100766.73;;;4.95;100.00
13367;BME280;6752;52.612;13.630;2023-02-02T09:17:22;100761.56;;;5.16;100.00
13367;BME280;6752;52.612;13.630;2023-02-02T09:22:24;100753.77;;;5.28;100.00
13367;BME280;6752;52.612;13.630;2023-02-02T09:27:26;100752.41;;;5.43;100.00
13367;BME280;6752;52.612;13.630;2023-02-02T09:32:29;100763.63;;;5.55;100.00
13367;BME280;6752;52.612;13.630;2023-02-02T09:37:32;100769.84;;;5.40;100.00
13367;BME280;6752;52.612;13.630;2023-02-02T09:42:38;100781.77;;;5.50;100.00
13367;BME280;6752;52.612;13.630;2023-02-02T09:47:52;100790.09;;;5.59;100.00
13367;BME280;6752;52.612;13.630;2023-02-02T09:58:47;100796.51;;;6.07;100.00
13367;BME280;6752;52.612;13.630;2023-02-02T10:04:00;100802.48;;;6.17;100.00
13367;BME280;6752;52.612;13.630;2023-02-02T10:19:23;100853.04;;;5.04;100.00
13367;BME280;6752;52.612;13.630;2023-02-02T10:24:29;100844.13;;;4.76;100.00
13367;BME280;6752;52.612;13.630;2023-02-02T10:29:42;100848.19;;;5.00;100.00
13367;BME280;6752;52.612;13.630;2023-02-02T10:34:42;100837.80;;;5.00;100.00
13367;BME280;6752;52.612;13.630;2023-02-02T10:40:16;100839.11;;;5.04;100.00
13367;BME280;6752;52.612;13.630;2023-02-02T10:45:14;100840.55;;;6.23;100.00
13367;BME280;6752;52.612;13.630;2023-02-02T10:50:17;100855.00;;;5.59;100.00
13367;BME280;6752;52.612;13.630;2023-02-02T11:00:22;100845.14;;;6.76;100.00
13367;BME280;6752;52.612;13.630;2023-02-02T11:05:25;100847.39;;;6.29;100.00
13367;BME280;6752;52.612;13.630;2023-02-02T11:10:46;100883.58;;;6.25;100.00
13367;BME280;6752;52.612;13.630;2023-02-02T11:15:47;100893.83;;;6.15;100.00
13367;BME280;6752;52.612;13.630;2023-02-02T11:20:49;100915.22;;;5.53;100.00
13367;BME280;6752;52.612;13.630;2023-02-02T11:26:00;100918.24;;;5.47;100.00
13367;BME280;6752;52.612;13.630;2023-02-02T11:31:03;100928.53;;;5.66;100.00
13367;BME280;6752;52.612;13.630;2023-02-02T11:36:06;100947.64;;;5.65;100.00
13367;BME280;6752;52.612;13.630;2023-02-02T11:41:07;100966.16;;;5.23;100.00
13367;BME280;6752;52.612;13.630;2023-02-02T11:46:22;100958.01;;;5.27;100.00
13367;BME280;6752;52.612;13.630;2023-02-02T11:51:25;100950.44;;;5.34;100.00
13367;BME280;6752;52.612;13.630;2023-02-02T11:56:26;100949.84;;;5.46;100.00
13367;BME280;6752;52.612;13.630;2023-02-02T12:01:35;100948.34;;;5.81;100.00
13367;BME280;6752;52.612;13.630;2023-02-02T12:06:37;100952.36;;;5.78;100.00
13367;BME280;6752;52.612;13.630;2023-02-02T12:11:59;100957.39;;;5.62;100.00
13367;BME280;6752;52.612;13.630;2023-02-02T12:17:35;100968.44;;;5.68;100.00
13367;BME280;6752;52.612;13.630;2023-02-02T12:22:55;100968.77;;;5.77;100.00
13367;BME280;6752;52.612;13.630;2023-02-02T12:33:20;100973.71;;;6.03;100.00
13367;BME280;6752;52.612;13.630;2023-02-02T12:43:47;100986.48;;;6.21;100.00
13367;BME280;6752;52.612;13.630;2023-02-02T12:49:10;100988.07;;;6.30;100.00
13367;BME280;6752;52.612;13.630;2023-02-02T12:59:42;100999.95;;;6.44;100.00
13367;BME280;6752;52.612;13.630;2023-02-02T13:05:39;101000.97;;;6.50;100.00
13367;BME280;6752;52.612;13.630;2023-02-02T13:15:05;101018.56;;;6.57;100.00
13367;BME280;6752;52.612;13.630;2023-02-02T13:20:21;101029.22;;;6.59;98.25
13367;BME280;6752;52.612;13.630;2023-02-02T13:25:26;101048.92;;;6.45;100.00
13367;BME280;6752;52.612;13.630;2023-02-02T13:30:33;101066.48;;;6.23;100.00
13367;BME280;6752;52.612;13.630;2023-02-02T13:35:35;101078.48;;;6.44;100.00
13367;BME280;6752;52.612;13.630;2023-02-02T13:40:37;101089.40;;;6.24;100.00
13367;BME280;6752;52.612;13.630;2023-02-02T13:45:45;101100.31;;;6.12;100.00
13367;BME280;6752;52.612;13.630;2023-02-02T13:51:01;101110.42;;;6.07;99.28
13367;BME280;6752;52.612;13.630;2023-02-02T14:01:01;101128.66;;;6.01;100.00
13367;BME280;6752;52.612;13.630;2023-02-02T14:06:04;101136.98;;;5.96;100.00
13367;BME280;6752;52.612;13.630;2023-02-02T14:11:05;101150.76;;;5.97;100.00
13367;BME280;6752;52.612;13.630;2023-02-02T14:16:22;101170.56;;;5.74;100.00
13367;BME280;6752;52.612;13.630;2023-02-02T14:31:53;101196.48;;;5.45;100.00
13367;BME280;6752;52.612;13.630;2023-02-02T14:37:05;101203.11;;;5.30;100.00
13367;BME280;6752;52.612;13.630;2023-02-02T14:42:13;101233.10;;;5.28;100.00
13367;BME280;6752;52.612;13.630;2023-02-02T14:47:52;101254.33;;;5.12;100.00
13367;BME280;6752;52.612;13.630;2023-02-02T14:52:58;101264.38;;;4.94;100.00
13367;BME280;6752;52.612;13.630;2023-02-02T14:57:59;101268.35;;;4.70;100.00
13367;BME280;6752;52.612;13.630;2023-02-02T15:08:25;101294.23;;;4.40;100.00
13367;BME280;6752;52.612;13.630;2023-02-02T15:13:32;101305.39;;;4.24;100.00
13367;BME280;6752;52.612;13.630;2023-02-02T15:18:30;101316.86;;;4.22;100.00
13367;BME280;6752;52.612;13.630;2023-02-02T15:23:39;101320.19;;;4.03;100.00
13367;BME280;6752;52.612;13.630;2023-02-02T15:33:46;101345.23;;;3.75;100.00
13367;BME280;6752;52.612;13.630;2023-02-02T15:38:45;101351.30;;;3.56;100.00
13367;BME280;6752;52.612;13.630;2023-02-02T15:43:47;101360.44;;;3.41;100.00
13367;BME280;6752;52.612;13.630;2023-02-02T15:54:23;101386.72;;;3.08;100.00
13367;BME280;6752;52.612;13.630;2023-02-02T15:59:28;101392.05;;;2.95;100.00
13367;BME280;6752;52.612;13.630;2023-02-02T16:04:32;101408.27;;;2.76;100.00
13367;BME280;6752;52.612;13.630;2023-02-02T16:09:34;101426.19;;;2.68;100.00
13367;BME280;6752;52.612;13.630;2023-02-02T16:14:37;101429.34;;;2.58;100.00
13367;BME280;6752;52.612;13.630;2023-02-02T16:19:40;101445.59;;;2.44;100.00
13367;BME280;6752;52.612;13.630;2023-02-02T16:24:50;101452.72;;;2.30;100.00
13367;BME280;6752;52.612;13.630;2023-02-02T16:29:47;101465.83;;;2.29;100.00
13367;BME280;6752;52.612;13.630;2023-02-02T16:34:49;101482.14;;;2.00;100.00
13367;BME280;6752;52.612;13.630;2023-02-02T16:39:55;101490.66;;;2.09;100.00
13367;BME280;6752;52.612;13.630;2023-02-02T16:44:57;101491.94;;;2.10;100.00
13367;BME280;6752;52.612;13.630;2023-02-02T16:55:14;101505.34;;;1.48;100.00
13367;BME280;6752;52.612;13.630;2023-02-02T17:00:20;101519.97;;;1.35;100.00
13367;BME280;6752;52.612;13.630;2023-02-02T17:05:22;101531.41;;;1.37;100.00
13367;BME280;6752;52.612;13.630;2023-02-02T17:10:25;101538.34;;;1.21;100.00
13367;BME280;6752;52.612;13.630;2023-02-02T17:15:28;101547.56;;;1.42;100.00
13367;BME280;6752;52.612;13.630;2023-02-02T17:20:28;101552.13;;;1.27;100.00
13367;BME280;6752;52.612;13.630;2023-02-02T17:25:34;101557.47;;;1.17;100.00
13367;BME280;6752;52.612;13.630;2023-02-02T17:30:38;101565.16;;;1.06;100.00
13367;BME280;6752;52.612;13.630;2023-02-02T17:35:38;101566.06;;;0.96;100.00
13367;BME280;6752;52.612;13.630;2023-02-02T17:40:41;101574.13;;;1.06;100.00
13367;BME280;6752;52.612;13.630;2023-02-02T17:45:43;101587.41;;;1.03;100.00
13367;BME280;6752;52.612;13.630;2023-02-02T17:50:46;101587.42;;;0.92;100.00
13367;BME280;6752;52.612;13.630;2023-02-02T17:55:48;101594.34;;;1.05;100.00
13367;BME280;6752;52.612;13.630;2023-02-02T18:00:53;101588.12;;;1.10;100.00
13367;BME280;6752;52.612;13.630;2023-02-02T18:05:55;101585.85;;;1.00;100.00
13367;BME280;6752;52.612;13.630;2023-02-02T18:10:57;101598.92;;;0.99;100.00
13367;BME280;6752;52.612;13.630;2023-02-02T18:15:59;101601.56;;;0.94;100.00
13367;BME280;6752;52.612;13.630;2023-02-02T18:21:05;101600.97;;;0.81;100.00
13367;BME280;6752;52.612;13.630;2023-02-02T18:26:11;101600.10;;;0.76;100.00
13367;BME280;6752;52.612;13.630;2023-02-02T18:31:10;101592.98;;;0.80;100.00
13367;BME280;6752;52.612;13.630;2023-02-02T18:36:12;101602.36;;;0.75;100.00
13367;BME280;6752;52.612;13.630;2023-02-02T18:41:14;101599.90;;;0.48;100.00
13367;BME280;6752;52.612;13.630;2023-02-02T18:46:16;101596.67;;;0.54;100.00
13367;BME280;6752;52.612;13.630;2023-02-02T18:51:18;101603.09;;;0.41;100.00
13367;BME280;6752;52.612;13.630;2023-02-02T18:56:21;101606.98;;;0.28;100.00
13367;BME280;6752;52.612;13.630;2023-02-02T19:01:23;101604.52;;;0.09;100.00
13367;BME280;6752;52.612;13.630;2023-02-02T19:06:26;101611.56;;;0.21;100.00
13367;BME280;6752;52.612;13.630;2023-02-02T19:11:50;101607.41;;;0.22;100.00
13367;BME280;6752;52.612;13.630;2023-02-02T19:16:48;101602.33;;;0.09;100.00
13367;BME280;6752;52.612;13.630;2023-02-02T19:21:55;101608.35;;;-0.04;100.00
13367;BME280;6752;52.612;13.630;2023-02-02T19:26:56;101618.88;;;0.04;100.00
13367;BME280;6752;52.612;13.630;2023-02-02T19:31:59;101631.36;;;-0.02;100.00
13367;BME280;6752;52.612;13.630;2023-02-02T19:37:01;101628.30;;;-0.08;100.00
13367;BME280;6752;52.612;13.630;2023-02-02T19:42:04;101634.41;;;-0.11;100.00
13367;BME280;6752;52.612;13.630;2023-02-02T19:47:22;101641.86;;;-0.15;100.00
13367;BME280;6752;52.612;13.630;2023-02-02T19:52:23;101627.91;;;-0.13;100.00
13367;BME280;6752;52.612;13.630;2023-02-02T19:57:35;101631.66;;;-0.26;100.00
13367;BME280;6752;52.612;13.630;2023-02-02T20:03:01;101639.59;;;-0.31;100.00
13367;BME280;6752;52.612;13.630;2023-02-02T20:08:07;101639.16;;;-0.52;100.00
13367;BME280;6752;52.612;13.630;2023-02-02T20:18:33;101624.73;;;-0.45;100.00
13367;BME280;6752;52.612;13.630;2023-02-02T20:23:43;101635.36;;;-0.39;100.00
13367;BME280;6752;52.612;13.630;2023-02-02T20:28:45;101631.11;;;-0.41;100.00
13367;BME280;6752;52.612;13.630;2023-02-02T20:33:49;101637.44;;;-0.48;100.00
13367;BME280;6752;52.612;13.630;2023-02-02T20:38:51;101639.55;;;-0.57;100.00
13367;BME280;6752;52.612;13.630;2023-02-02T20:43:53;101637.48;;;-0.59;100.00
13367;BME280;6752;52.612;13.630;2023-02-02T20:48:56;101643.02;;;-0.56;100.00
13367;BME280;6752;52.612;13.630;2023-02-02T20:53:58;101638.55;;;-0.66;100.00
13367;BME280;6752;52.612;13.630;2023-02-02T20:59:01;101630.70;;;-0.69;100.00
13367;BME280;6752;52.612;13.630;2023-02-02T21:04:03;101626.13;;;-0.51;100.00
13367;BME280;6752;52.612;13.630;2023-02-02T21:09:20;101617.36;;;-0.42;100.00
13367;BME280;6752;52.612;13.630;2023-02-02T21:14:23;101617.47;;;-0.28;100.00
13367;BME280;6752;52.612;13.630;2023-02-02T21:19:25;101605.25;;;-0.15;100.00
13367;BME280;6752;52.612;13.630;2023-02-02T21:24:28;101605.84;;;-0.11;100.00
13367;BME280;6752;52.612;13.630;2023-02-02T21:29:30;101598.75;;;-0.17;100.00
13367;BME280;6752;52.612;13.630;2023-02-02T21:34:33;101585.38;;;-0.12;100.00
13367;BME280;6752;52.612;13.630;2023-02-02T21:39:35;101584.86;;;-0.17;100.00
13367;BME280;6752;52.612;13.630;2023-02-02T21:44:39;101589.47;;;-0.24;100.00
13367;BME280;6752;52.612;13.630;2023-02-02T21:49:40;101583.23;;;-0.35;100.00
13367;BME280;6752;52.612;13.630;2023-02-02T21:54:43;101594.83;;;-0.40;100.00
13367;BME280;6752;52.612;13.630;2023-02-02T21:59:45;101595.19;;;-0.28;100.00
13367;BME280;6752;52.612;13.630;2023-02-02T22:04:47;101579.83;;;-0.10;100.00
13367;BME280;6752;52.612;13.630;2023-02-02T22:09:50;101584.33;;;0.21;100.00
13367;BME280;6752;52.612;13.630;2023-02-02T22:14:58;101571.05;;;0.25;100.00
13367;BME280;6752;52.612;13.630;2023-02-02T22:19:59;101563.52;;;0.29;100.00
13367;BME280;6752;52.612;13.630;2023-02-02T22:35:32;101560.73;;;0.51;100.00
13367;BME280;6752;52.612;13.630;2023-02-02T22:40:34;101558.64;;;0.59;100.00
13367;BME280;6752;52.612;13.630;2023-02-02T22:45:36;101569.16;;;0.56;100.00
13367;BME280;6752;52.612;13.630;2023-02-02T22:50:39;101560.34;;;0.60;100.00
13367;BME280;6752;52.612;13.630;2023-02-02T22:55:41;101556.67;;;0.61;100.00
13367;BME280;6752;52.612;13.630;2023-02-02T23:00:43;101569.67;;;0.66;100.00
13367;BME280;6752;52.612;13.630;2023-02-02T23:05:46;101560.14;;;0.67;100.00
13367;BME280;6752;52.612;13.630;2023-02-02T23:10:48;101559.77;;;0.76;100.00
13367;BME280;6752;52.612;13.630;2023-02-02T23:15:51;101550.81;;;0.82;100.00
13367;BME280;6752;52.612;13.630;2023-02-02T23:20:53;101556.05;;;0.88;100.00
13367;BME280;6752;52.612;13.630;2023-02-02T23:25:56;101548.69;;;0.96;100.00
13367;BME280;6752;52.612;13.630;2023-02-02T23:30:58;101537.53;;;1.00;100.00
13367;BME280;6752;52.612;13.630;2023-02-02T23:36:03;101531.81;;;1.09;100.00
13367;BME280;6752;52.612;13.630;2023-02-02T23:41:06;101527.00;;;1.12;100.00
13367;BME280;6752;52.612;13.630;2023-02-02T23:46:09;101506.72;;;1.14;100.00
13367;BME280;6752;52.612;13.630;2023-02-02T23:51:10;101497.22;;;1.20;100.00
13367;BME280;6752;52.612;13.630;2023-02-02T23:56:12;101492.91;;;1.18;100.00
